Time;durP1;ratioP1;P1;durP2;ratioP2;P2;SDS_P1;SDS_P2;PMS_P1;PMS_P2;Temp;Humidity;BMP_temperature;BMP_pressure;BME280_temperature;BME280_humidity;BME280_pressure;Samples;Min_cycle;Max_cycle;Signal;HPM_P1;HPM_P2
2022/10/23 04:02:42;;;;;;;41.55;23.38;;;11.20;99.90;;;;;;6307806;22;20340;-79
2022/10/23 04:05:07;;;;;;;46.15;23.70;;;11.10;99.90;;;;;;6280132;22;20011;-82
2022/10/23 04:07:33;;;;;;;41.70;22.33;;;11.10;99.90;;;;;;6255109;22;20290;-78
2022/10/23 04:09:59;;;;;;;43.03;21.80;;;11.10;99.90;;;;;;6282434;22;20007;-80
2022/10/23 04:12:24;;;;;;;46.17;23.92;;;11.10;99.90;;;;;;6282320;22;20060;-84
2022/10/23 04:14:50;;;;;;;46.70;23.17;;;11.10;99.90;;;;;;6282384;22;20011;-79
2022/10/23 04:17:18;;;;;;;45.00;22.80;;;11.10;99.90;;;;;;6282556;22;20042;-78
2022/10/23 04:19:44;;;;;;;39.15;22.35;;;11.10;99.90;;;;;;6282408;22;20014;-85
2022/10/23 04:22:09;;;;;;;48.03;23.58;;;11.10;99.90;;;;;;6256787;22;20011;-78
2022/10/23 04:24:35;;;;;;;56.95;27.33;;;11.10;99.90;;;;;;6282417;22;20029;-78
2022/10/23 04:27:00;;;;;;;38.00;21.90;;;11.00;99.90;;;;;;6256853;22;20022;-82
2022/10/23 04:29:28;;;;;;;44.45;23.77;;;11.10;99.90;;;;;;6309945;22;20023;-82
2022/10/23 04:31:53;;;;;;;43.92;24.15;;;11.10;99.90;;;;;;6282233;22;20019;-80
2022/10/23 04:34:19;;;;;;;39.83;21.77;;;11.00;99.90;;;;;;6309995;22;20025;-79
2022/10/23 04:36:45;;;;;;;53.92;25.58;;;11.00;99.90;;;;;;6282264;22;20012;-79
2022/10/23 04:39:11;;;;;;;46.38;24.52;;;11.00;99.90;;;;;;6282131;22;20014;-82
2022/10/23 04:41:37;;;;;;;40.58;23.02;;;11.00;99.90;;;;;;6256526;22;20022;-82
2022/10/23 04:44:03;;;;;;;42.83;22.88;;;11.00;99.90;;;;;;6282133;22;20011;-82
2022/10/23 04:46:29;;;;;;;44.63;24.67;;;11.00;99.90;;;;;;6281952;22;20094;-80
2022/10/23 04:48:54;;;;;;;43.55;23.33;;;11.00;99.90;;;;;;6282035;22;20023;-81
2022/10/23 04:51:20;;;;;;;40.03;22.13;;;10.90;99.90;;;;;;6282033;22;20490;-79
2022/10/23 04:53:46;;;;;;;40.00;22.30;;;10.90;99.90;;;;;;6282218;22;20432;-82
2022/10/23 04:56:13;;;;;;;43.13;23.73;;;11.00;99.90;;;;;;6281952;22;20007;-80
2022/10/23 04:58:39;;;;;;;41.97;22.38;;;10.90;99.90;;;;;;6281991;22;20012;-82
2022/10/23 05:01:06;;;;;;;45.45;23.35;;;10.90;99.90;;;;;;6281836;22;20022;-77
2022/10/23 05:03:32;;;;;;;46.38;23.33;;;10.90;99.90;;;;;;6281936;22;20165;-80
2022/10/23 05:05:58;;;;;;;48.05;24.70;;;10.90;99.90;;;;;;6281966;22;20070;-81
2022/10/23 05:08:24;;;;;;;45.70;23.00;;;11.00;99.90;;;;;;6309305;22;20535;-80
2022/10/23 05:10:50;;;;;;;43.53;24.00;;;10.90;99.90;;;;;;6281758;22;20018;-80
2022/10/23 05:13:18;;;;;;;40.47;22.50;;;10.90;99.90;;;;;;6281775;22;20362;-82
2022/10/23 05:15:46;;;;;;;41.55;22.98;;;10.90;99.90;;;;;;6282118;22;20286;-83
2022/10/23 05:18:24;;;;;;;45.38;22.80;;;10.90;99.90;;;;;;6281729;22;20011;-79
2022/10/23 05:20:54;;;;;;;43.40;23.65;;;10.90;99.90;;;;;;6281406;22;20054;-82
2022/10/23 05:23:22;;;;;;;49.38;24.75;;;10.90;99.90;;;;;;6281816;22;20375;-84
2022/10/23 05:25:48;;;;;;;42.10;24.08;;;10.90;99.90;;;;;;6281645;22;20090;-77
2022/10/23 05:28:13;;;;;;;37.80;22.48;;;10.90;99.90;;;;;;6281787;22;20042;-78
2022/10/23 05:30:39;;;;;;;42.85;23.35;;;10.90;99.90;;;;;;6256614;22;20129;-81
2022/10/23 05:33:05;;;;;;;40.58;21.60;;;10.90;99.90;;;;;;6281514;22;20340;-80
2022/10/23 05:35:31;;;;;;;41.45;22.77;;;10.90;99.90;;;;;;6308955;22;20007;-82
2022/10/23 05:37:58;;;;;;;49.60;23.85;;;10.90;99.90;;;;;;6281413;22;20014;-80
2022/10/23 05:40:25;;;;;;;41.20;22.80;;;10.90;99.90;;;;;;6281318;22;20022;-77
2022/10/23 05:42:50;;;;;;;51.60;25.38;;;10.90;99.90;;;;;;6255868;22;20471;-79
2022/10/23 05:45:17;;;;;;;54.08;24.13;;;10.90;99.90;;;;;;6281332;22;20046;-82
2022/10/23 05:47:44;;;;;;;40.45;22.95;;;10.90;99.90;;;;;;6281255;22;20022;-83
2022/10/23 05:50:10;;;;;;;51.38;26.00;;;10.90;99.90;;;;;;6255757;22;20034;-84
2022/10/23 05:52:35;;;;;;;46.15;23.65;;;10.90;99.90;;;;;;6308889;22;20015;-81
2022/10/23 05:55:01;;;;;;;46.85;23.65;;;10.90;99.90;;;;;;6281398;22;20501;-79
2022/10/23 05:57:26;;;;;;;55.65;24.85;;;11.00;99.90;;;;;;6281370;22;20007;-81
2022/10/23 05:59:52;;;;;;;50.05;24.67;;;10.90;99.90;;;;;;6281317;22;20012;-80
2022/10/23 06:02:18;;;;;;;57.78;26.35;;;10.90;99.90;;;;;;6280865;22;20011;-83
2022/10/23 06:04:44;;;;;;;47.15;24.48;;;10.90;99.90;;;;;;6281173;22;20015;-85
2022/10/23 06:07:09;;;;;;;41.67;23.23;;;10.90;99.90;;;;;;6281219;22;20022;-79
2022/10/23 06:09:35;;;;;;;47.90;23.42;;;10.90;99.90;;;;;;6281206;22;20509;-80
2022/10/23 06:12:01;;;;;;;47.50;24.33;;;10.90;99.90;;;;;;6280892;22;20090;-79
2022/10/23 06:14:27;;;;;;;47.80;25.65;;;10.90;99.90;;;;;;6255481;22;20081;-81
2022/10/23 06:16:53;;;;;;;48.92;22.58;;;10.90;99.90;;;;;;6280983;22;20467;-81
2022/10/23 06:19:18;;;;;;;41.45;22.80;;;10.90;99.90;;;;;;6281143;22;20011;-79
2022/10/23 06:21:44;;;;;;;45.25;23.15;;;10.90;99.90;;;;;;6281065;22;20019;-83
2022/10/23 06:24:10;;;;;;;40.20;21.67;;;10.90;99.90;;;;;;6280999;22;20044;-81
2022/10/23 06:26:35;;;;;;;45.15;23.65;;;11.00;99.90;;;;;;6281333;22;20471;-82
2022/10/23 06:29:01;;;;;;;44.35;22.80;;;11.00;99.90;;;;;;6280857;22;20013;-79
2022/10/23 06:31:27;;;;;;;51.05;24.25;;;11.00;99.90;;;;;;6254854;22;20476;-79
2022/10/23 06:33:54;;;;;;;46.53;23.45;;;11.00;99.90;;;;;;6308285;22;20432;-79
2022/10/23 06:36:20;;;;;;;48.80;22.67;;;11.00;99.90;;;;;;6281114;22;20477;-78
2022/10/23 06:38:48;;;;;;;50.13;24.48;;;11.00;99.90;;;;;;6280813;22;20448;-78
2022/10/23 06:41:16;;;;;;;43.75;23.83;;;11.00;99.90;;;;;;6280830;22;20018;-82
2022/10/23 06:43:42;;;;;;;45.60;23.55;;;11.00;99.90;;;;;;6280731;22;20015;-79
2022/10/23 06:46:08;;;;;;;48.45;24.40;;;11.00;99.90;;;;;;6280865;22;20015;-84
2022/10/23 06:48:34;;;;;;;45.53;22.05;;;11.10;99.90;;;;;;6280954;22;20051;-79
2022/10/23 06:51:05;;;;;;;42.55;22.15;;;11.10;99.90;;;;;;6280511;22;20463;-80
2022/10/23 06:53:31;;;;;;;41.20;22.38;;;11.10;99.90;;;;;;6280758;22;20050;-79
2022/10/23 06:56:01;;;;;;;40.58;22.35;;;11.10;99.90;;;;;;6280620;22;20007;-84
2022/10/23 06:58:27;;;;;;;45.22;22.35;;;11.10;99.90;;;;;;6280627;22;20030;-79
2022/10/23 07:00:53;;;;;;;43.67;23.13;;;11.10;99.90;;;;;;6307847;22;20007;-81
2022/10/23 07:03:19;;;;;;;41.47;22.92;;;11.10;99.90;;;;;;6308562;22;20379;-76
2022/10/23 07:05:46;;;;;;;45.60;22.90;;;11.20;99.90;;;;;;6280670;22;20030;-79
2022/10/23 07:08:12;;;;;;;38.22;23.40;;;11.20;99.90;;;;;;6280854;22;20015;-81
2022/10/23 07:10:41;;;;;;;42.10;22.73;;;11.20;99.90;;;;;;6280559;22;20008;-77
2022/10/23 07:13:10;;;;;;;45.50;21.70;;;11.20;99.90;;;;;;6254843;22;20055;-79
2022/10/23 07:15:37;;;;;;;41.03;22.05;;;11.20;99.90;;;;;;6280332;22;20457;-79
2022/10/23 07:18:05;;;;;;;43.92;22.33;;;11.20;99.90;;;;;;6279749;22;20014;-78
2022/10/23 07:20:31;;;;;;;42.88;21.92;;;11.20;99.90;;;;;;6252114;22;20502;-82
2022/10/23 07:22:57;;;;;;;40.95;21.50;;;11.20;99.90;;;;;;6307077;22;20088;-78
2022/10/23 07:25:26;;;;;;;42.08;22.00;;;11.30;99.90;;;;;;6280402;22;20011;-76
2022/10/23 07:27:54;;;;;;;40.97;21.75;;;11.30;99.90;;;;;;6280422;22;20011;-81
2022/10/23 07:30:20;;;;;;;43.10;22.45;;;11.30;99.90;;;;;;6280317;22;20015;-80
2022/10/23 07:32:45;;;;;;;41.40;20.67;;;11.30;99.90;;;;;;6280212;22;20348;-81
2022/10/23 07:35:11;;;;;;;37.13;20.65;;;11.40;99.90;;;;;;6308002;22;20086;-77
2022/10/23 07:37:38;;;;;;;42.90;21.95;;;11.40;99.90;;;;;;6280300;22;20011;-78
2022/10/23 07:40:06;;;;;;;39.67;21.13;;;11.40;99.90;;;;;;6280174;22;20106;-79
2022/10/23 07:42:31;;;;;;;42.55;20.65;;;11.40;99.90;;;;;;6279727;22;20415;-80
2022/10/23 07:44:57;;;;;;;35.00;19.40;;;11.50;99.90;;;;;;6280254;22;20041;-78
2022/10/23 07:47:23;;;;;;;37.00;20.27;;;11.50;99.90;;;;;;6280271;22;20022;-80
2022/10/23 07:49:48;;;;;;;40.72;20.35;;;11.60;99.90;;;;;;6280373;22;20015;-81
2022/10/23 07:52:14;;;;;;;39.05;20.45;;;11.60;99.90;;;;;;6280165;22;20015;-80
2022/10/23 07:54:40;;;;;;;37.90;20.20;;;11.60;99.90;;;;;;6280234;22;20428;-80
2022/10/23 07:57:06;;;;;;;38.78;22.42;;;11.60;99.90;;;;;;6280281;22;20026;-77
2022/10/23 07:59:33;;;;;;;38.45;19.67;;;11.60;99.90;;;;;;6280098;22;20008;-82
2022/10/23 08:01:58;;;;;;;38.72;19.58;;;11.70;99.90;;;;;;6307305;22;20011;-78
2022/10/23 08:04:24;;;;;;;37.35;20.02;;;11.70;99.90;;;;;;6280174;22;20076;-78
2022/10/23 08:06:50;;;;;;;36.53;19.88;;;11.70;99.90;;;;;;6307431;22;20501;-81
2022/10/23 08:09:16;;;;;;;37.42;19.23;;;11.80;99.90;;;;;;6308205;22;20013;-81
2022/10/23 08:11:42;;;;;;;32.97;19.58;;;11.80;99.90;;;;;;6280042;22;20011;-82
2022/10/23 08:14:08;;;;;;;31.83;18.65;;;11.90;99.90;;;;;;6279972;22;20072;-81
2022/10/23 08:16:36;;;;;;;30.20;19.00;;;11.90;99.90;;;;;;6280199;22;20004;-80
2022/10/23 08:19:02;;;;;;;31.67;18.15;;;11.90;99.90;;;;;;6280151;22;20019;-80
2022/10/23 08:21:28;;;;;;;35.88;19.40;;;12.00;99.90;;;;;;6307452;22;20022;-80
2022/10/23 08:23:55;;;;;;;31.35;17.85;;;12.00;99.90;;;;;;6307967;22;20007;-78
2022/10/23 08:26:21;;;;;;;33.97;18.33;;;12.00;99.90;;;;;;6280279;22;20011;-80
2022/10/23 08:28:47;;;;;;;28.95;18.80;;;12.10;99.90;;;;;;6280163;22;20080;-79
2022/10/23 08:31:19;;;;;;;31.02;18.60;;;12.10;99.90;;;;;;6280011;22;20015;-77
2022/10/23 08:33:45;;;;;;;39.92;18.52;;;12.10;99.90;;;;;;6279991;22;20021;-80
2022/10/23 08:36:27;;;;;;;34.45;16.92;;;12.20;99.90;;;;;;6254512;22;20015;-80
2022/10/23 08:38:57;;;;;;;27.33;16.50;;;12.20;99.90;;;;;;6280040;22;20082;-83
2022/10/23 08:41:34;;;;;;;28.58;15.90;;;12.20;99.90;;;;;;6279926;22;20050;-81
2022/10/23 08:44:06;;;;;;;28.20;16.00;;;12.30;99.90;;;;;;6254605;22;20015;-81
2022/10/23 08:46:39;;;;;;;31.65;16.20;;;12.20;99.90;;;;;;6254478;22;20015;-79
2022/10/23 08:49:24;;;;;;;23.33;15.75;;;12.30;99.90;;;;;;6280283;22;20011;-81
2022/10/23 08:51:53;;;;;;;34.75;16.27;;;12.40;99.90;;;;;;6280035;22;20019;-78
2022/10/23 08:54:42;;;;;;;29.13;15.43;;;12.40;99.90;;;;;;6308088;22;20094;-79
2022/10/23 08:57:14;;;;;;;29.73;15.75;;;12.50;99.90;;;;;;6281757;22;20003;-79
2022/10/23 08:59:49;;;;;;;27.98;14.57;;;12.50;99.90;;;;;;6282920;22;20015;-77
2022/10/23 09:02:30;;;;;;;31.88;15.32;;;12.60;99.90;;;;;;6283685;22;20433;-78
2022/10/23 09:04:57;;;;;;;28.88;16.08;;;12.70;99.90;;;;;;6282072;22;20061;-78
2022/10/23 09:07:49;;;;;;;27.15;15.38;;;12.80;99.90;;;;;;6281839;22;20019;-77
2022/10/23 09:10:30;;;;;;;23.23;12.90;;;12.80;99.90;;;;;;6281808;22;20018;-79
2022/10/23 09:13:19;;;;;;;23.80;14.43;;;12.90;99.90;;;;;;6281554;22;20030;-77
2022/10/23 09:16:02;;;;;;;25.65;14.15;;;12.90;99.90;;;;;;6309028;22;20031;-78
2022/10/23 09:18:29;;;;;;;24.00;13.77;;;12.90;99.90;;;;;;6281594;22;20488;-81
2022/10/23 09:20:56;;;;;;;24.23;13.13;;;12.90;99.90;;;;;;6309290;22;20011;-79
2022/10/23 09:23:22;;;;;;;22.80;12.57;;;13.00;99.90;;;;;;6281363;22;20007;-81
2022/10/23 09:25:54;;;;;;;23.77;12.68;;;13.00;99.90;;;;;;6308594;22;20401;-80
2022/10/23 09:28:29;;;;;;;23.98;12.50;;;13.10;99.90;;;;;;6281710;22;20333;-82
2022/10/23 09:31:11;;;;;;;27.48;13.23;;;13.10;99.90;;;;;;6281335;22;20018;-78
2022/10/23 09:33:38;;;;;;;24.77;13.25;;;13.20;99.90;;;;;;6281349;22;20007;-83
2022/10/23 09:36:12;;;;;;;25.42;13.10;;;13.20;99.90;;;;;;6309768;22;20029;-80
2022/10/23 09:38:44;;;;;;;20.30;12.48;;;13.30;99.90;;;;;;6282191;22;20374;-81
2022/10/23 09:41:16;;;;;;;22.23;11.70;;;13.30;99.90;;;;;;6280705;22;20015;-79
2022/10/23 09:43:42;;;;;;;26.10;11.88;;;13.30;99.90;;;;;;6281507;22;20011;-81
2022/10/23 09:46:09;;;;;;;25.08;11.70;;;13.40;99.90;;;;;;6281419;22;20022;-80
2022/10/23 09:48:35;;;;;;;22.45;11.32;;;13.40;99.90;;;;;;6281634;22;20019;-79
2022/10/23 09:51:16;;;;;;;18.88;10.77;;;13.40;99.90;;;;;;6281356;22;20015;-78
2022/10/23 09:53:50;;;;;;;26.38;12.13;;;13.40;99.90;;;;;;6256359;22;20022;-81
2022/10/23 09:56:40;;;;;;;20.92;12.30;;;13.50;99.90;;;;;;6281434;22;20046;-83
2022/10/23 09:59:12;;;;;;;20.27;10.80;;;13.50;99.90;;;;;;6281650;22;20011;-79
2022/10/23 10:02:08;;;;;;;16.92;10.57;;;13.60;99.90;;;;;;6255554;22;20011;-81
2022/10/23 10:04:39;;;;;;;19.70;11.23;;;13.60;99.90;;;;;;6279920;22;20429;-79
2022/10/23 10:07:19;;;;;;;18.38;10.45;;;13.70;99.90;;;;;;6280961;22;20011;-81
2022/10/23 10:09:45;;;;;;;19.98;10.48;;;13.70;99.90;;;;;;6281595;22;20428;-83
2022/10/23 10:12:42;;;;;;;15.52;9.10;;;13.70;99.90;;;;;;6308849;22;20013;-78
2022/10/23 10:15:21;;;;;;;16.48;9.85;;;13.80;99.90;;;;;;6309286;22;20014;-80
2022/10/23 10:18:05;;;;;;;26.15;10.70;;;13.90;99.90;;;;;;6281315;22;20039;-79
2022/10/23 10:20:52;;;;;;;14.07;9.35;;;13.90;99.90;;;;;;6281450;22;20041;-80
2022/10/23 10:23:18;;;;;;;18.27;9.68;;;14.00;99.90;;;;;;6281490;22;20483;-79
2022/10/23 10:26:15;;;;;;;21.27;9.90;;;14.00;99.90;;;;;;6255619;22;20015;-81
2022/10/23 10:29:04;;;;;;;18.27;8.50;;;14.10;99.90;;;;;;6255549;22;20337;-78
2022/10/23 10:32:11;;;;;;;16.00;8.30;;;14.10;99.90;;;;;;6280986;22;20080;-82
2022/10/23 10:35:01;;;;;;;18.48;8.60;;;14.20;99.90;;;;;;6281460;22;20047;-81
2022/10/23 10:38:00;;;;;;;19.95;8.65;;;14.20;99.90;;;;;;6281728;22;20067;-81
2022/10/23 10:40:40;;;;;;;13.50;7.85;;;14.20;99.90;;;;;;6308703;22;20344;-78
2022/10/23 10:43:30;;;;;;;13.63;7.88;;;14.30;99.90;;;;;;6281010;22;20440;-81
2022/10/23 10:46:27;;;;;;;14.82;7.90;;;14.30;99.90;;;;;;6308505;22;20019;-79
2022/10/23 10:49:01;;;;;;;17.45;8.23;;;14.30;99.90;;;;;;6281068;22;20069;-79
2022/10/23 10:51:44;;;;;;;18.65;8.15;;;14.30;99.90;;;;;;6280793;22;20068;-79
2022/10/23 10:54:22;;;;;;;10.63;7.35;;;14.30;99.90;;;;;;6281155;22;20429;-79
2022/10/23 10:56:47;;;;;;;17.27;8.10;;;14.30;99.90;;;;;;6281026;22;20007;-81
2022/10/23 10:59:23;;;;;;;13.50;7.95;;;14.30;99.90;;;;;;6281076;22;20104;-81
2022/10/23 11:01:57;;;;;;;11.73;7.43;;;14.30;99.90;;;;;;6280486;22;20034;-79
2022/10/23 11:05:13;;;;;;;19.08;7.35;;;14.30;99.90;;;;;;6255689;22;20019;-78
2022/10/23 11:07:58;;;;;;;14.63;6.97;;;14.30;99.90;;;;;;6217720;22;20014;-81
2022/10/23 11:10:25;;;;;;;13.02;7.03;;;14.30;99.90;;;;;;6280838;22;20022;-80
2022/10/23 11:12:51;;;;;;;12.57;6.93;;;14.40;99.90;;;;;;6280641;22;20011;-78
2022/10/23 11:15:22;;;;;;;16.63;7.93;;;14.40;99.90;;;;;;6280664;22;20074;-83
2022/10/23 11:17:53;;;;;;;13.60;7.43;;;14.30;99.90;;;;;;6280717;22;20060;-82
2022/10/23 11:20:31;;;;;;;11.85;7.43;;;14.40;99.90;;;;;;6280631;22;20056;-82
2022/10/23 11:23:11;;;;;;;16.23;7.22;;;14.30;99.90;;;;;;6307996;22;20460;-83
2022/10/23 11:25:52;;;;;;;14.57;7.07;;;14.40;99.90;;;;;;6281003;22;20086;-81
2022/10/23 11:28:27;;;;;;;11.57;7.05;;;14.30;99.90;;;;;;6280783;22;20025;-81
2022/10/23 11:31:06;;;;;;;15.15;7.03;;;14.30;99.90;;;;;;6280397;22;20022;-82
2022/10/23 11:34:02;;;;;;;15.63;7.43;;;14.30;99.90;;;;;;6280549;22;20015;-81
2022/10/23 11:36:42;;;;;;;13.52;7.00;;;14.30;99.90;;;;;;6255205;22;20078;-79
2022/10/23 11:39:21;;;;;;;15.18;6.95;;;14.30;99.90;;;;;;6280508;22;20125;-79
2022/10/23 11:41:49;;;;;;;15.35;7.07;;;14.40;99.90;;;;;;6280162;22;20011;-82
2022/10/23 11:44:25;;;;;;;12.70;6.45;;;14.40;99.90;;;;;;6280565;22;20007;-79
2022/10/23 11:47:25;;;;;;;15.25;6.68;;;14.40;99.90;;;;;;6279625;22;20081;-79
2022/10/23 11:50:07;;;;;;;13.93;6.55;;;14.40;99.90;;;;;;6307428;22;20107;-78
2022/10/23 11:52:35;;;;;;;13.25;6.38;;;14.40;99.90;;;;;;6279917;22;20441;-80
2022/10/23 11:55:03;;;;;;;17.60;6.20;;;14.50;99.90;;;;;;6254950;22;20017;-79
2022/10/23 11:57:28;;;;;;;11.98;5.88;;;14.50;99.90;;;;;;6308068;22;20459;-79
2022/10/23 11:59:56;;;;;;;13.32;6.88;;;14.50;99.90;;;;;;6280519;22;20018;-77
2022/10/23 12:02:30;;;;;;;11.73;6.07;;;14.50;99.90;;;;;;6280691;22;20094;-79
2022/10/23 12:05:00;;;;;;;13.27;6.20;;;14.50;99.90;;;;;;6280218;22;20019;-80
2022/10/23 12:07:33;;;;;;;14.23;5.97;;;14.50;99.90;;;;;;6306910;22;20230;-79
2022/10/23 12:09:58;;;;;;;13.45;5.85;;;14.60;99.90;;;;;;6280354;22;20020;-78
2022/10/23 12:12:32;;;;;;;12.75;5.57;;;14.60;99.90;;;;;;6280217;22;20015;-77
2022/10/23 12:15:10;;;;;;;10.55;5.85;;;14.60;99.90;;;;;;6280894;22;20018;-80
2022/10/23 12:17:39;;;;;;;10.30;5.40;;;14.60;99.90;;;;;;6280533;22;20136;-81
2022/10/23 12:20:11;;;;;;;9.60;5.15;;;14.70;99.90;;;;;;6280411;22;20145;-80
2022/10/23 12:22:49;;;;;;;11.25;5.35;;;14.70;99.90;;;;;;6280661;22;20344;-82
2022/10/23 12:25:21;;;;;;;9.93;5.32;;;14.70;99.90;;;;;;6280835;22;20011;-82
2022/10/23 12:28:08;;;;;;;11.18;5.22;;;14.70;99.90;;;;;;6255001;22;20090;-80
2022/10/23 12:31:01;;;;;;;9.68;4.78;;;14.70;99.90;;;;;;6309690;22;20046;-77
2022/10/23 12:33:40;;;;;;;11.70;5.00;;;14.70;99.90;;;;;;6310331;22;20018;-80
2022/10/23 12:36:17;;;;;;;9.23;4.75;;;14.70;99.90;;;;;;6282441;22;20054;-81
2022/10/23 12:38:45;;;;;;;11.82;4.95;;;14.70;99.90;;;;;;6310064;22;20427;-81
2022/10/23 12:41:16;;;;;;;10.23;4.60;;;14.70;99.90;;;;;;6309697;22;20015;-78
2022/10/23 12:43:44;;;;;;;8.65;4.78;;;14.80;99.90;;;;;;6310168;22;20018;-80
2022/10/23 12:46:26;;;;;;;9.07;4.57;;;14.80;99.90;;;;;;6282339;22;20345;-79
2022/10/23 12:48:55;;;;;;;11.32;4.40;;;14.90;99.90;;;;;;6310149;22;20011;-78
2022/10/23 12:51:30;;;;;;;9.77;4.43;;;14.90;99.90;;;;;;6309453;22;20014;-81
2022/10/23 12:53:56;;;;;;;10.45;4.35;;;14.90;99.90;;;;;;6282265;22;20023;-80
2022/10/23 12:56:24;;;;;;;12.68;5.82;;;14.90;99.90;;;;;;6282011;22;20007;-82
2022/10/23 12:58:55;;;;;;;10.27;5.53;;;15.00;99.90;;;;;;6309527;22;20012;-80
2022/10/23 13:01:24;;;;;;;12.38;4.55;;;15.00;99.90;;;;;;6281646;22;20011;-81
2022/10/23 13:03:55;;;;;;;8.40;4.00;;;15.00;99.90;;;;;;6282131;22;20068;-81
2022/10/23 13:06:21;;;;;;;10.73;3.85;;;15.00;99.90;;;;;;6281919;22;20346;-79
2022/10/23 13:08:48;;;;;;;14.10;4.30;;;15.00;99.90;;;;;;6280881;22;20318;-82
2022/10/23 13:11:16;;;;;;;9.68;3.88;;;15.00;99.90;;;;;;6280375;22;20437;-79
2022/10/23 13:13:41;;;;;;;9.75;4.25;;;15.10;99.90;;;;;;6281044;22;20078;-79
2022/10/23 13:16:19;;;;;;;12.43;4.22;;;15.10;99.90;;;;;;6281149;22;20095;-79
2022/10/23 13:18:45;;;;;;;10.13;4.28;;;15.10;99.90;;;;;;6308751;22;20007;-80
2022/10/23 13:21:24;;;;;;;10.13;3.78;;;15.20;99.90;;;;;;6281013;22;20568;-78
2022/10/23 13:23:51;;;;;;;15.88;4.40;;;15.20;99.90;;;;;;6308449;22;20019;-78
2022/10/23 13:26:41;;;;;;;11.10;3.60;;;15.20;99.90;;;;;;6281243;22;20053;-81
2022/10/23 13:29:32;;;;;;;8.32;3.70;;;15.30;99.90;;;;;;6281043;22;20012;-81
2022/10/23 13:32:09;;;;;;;10.23;3.78;;;15.30;99.90;;;;;;6308702;22;20034;-79
2022/10/23 13:34:35;;;;;;;8.45;3.53;;;15.20;99.90;;;;;;6255303;22;20014;-79
2022/10/23 13:37:25;;;;;;;11.10;4.03;;;15.30;99.90;;;;;;6280820;22;20015;-78
2022/10/23 13:40:03;;;;;;;9.10;4.10;;;15.30;99.90;;;;;;6262639;22;20018;-79
2022/10/23 13:42:28;;;;;;;8.63;3.28;;;15.30;99.90;;;;;;6280974;22;20400;-78
2022/10/23 13:44:54;;;;;;;8.75;4.00;;;15.20;99.90;;;;;;6308256;22;20015;-78
2022/10/23 13:47:20;;;;;;;9.55;4.18;;;15.30;99.90;;;;;;6281820;22;20371;-80
2022/10/23 13:49:45;;;;;;;8.88;3.72;;;15.30;99.90;;;;;;6280817;22;20023;-79
2022/10/23 13:52:16;;;;;;;12.07;3.90;;;15.30;99.90;;;;;;6283742;22;20077;-80
2022/10/23 13:54:42;;;;;;;9.90;3.45;;;15.30;99.90;;;;;;6312242;22;20007;-79
2022/10/23 13:57:12;;;;;;;8.15;3.55;;;15.30;99.90;;;;;;6256492;22;20027;-82
2022/10/23 13:59:38;;;;;;;11.90;4.65;;;15.30;99.90;;;;;;6281874;22;20061;-81
2022/10/23 14:02:22;;;;;;;7.70;3.72;;;15.30;99.90;;;;;;6255883;22;20015;-79
2022/10/23 14:04:51;;;;;;;9.63;3.28;;;15.30;99.90;;;;;;6256259;22;20011;-80
2022/10/23 14:07:17;;;;;;;7.75;3.70;;;15.30;99.90;;;;;;6255622;22;20058;-79
2022/10/23 14:09:43;;;;;;;12.15;3.70;;;15.40;99.90;;;;;;6280697;22;20042;-82
2022/10/23 14:12:10;;;;;;;9.68;3.45;;;15.40;99.90;;;;;;6280534;22;20064;-80
2022/10/23 14:14:36;;;;;;;7.28;3.22;;;15.40;99.90;;;;;;6308585;22;20030;-78
2022/10/23 14:17:02;;;;;;;8.73;3.50;;;15.40;99.90;;;;;;6280884;22;20429;-80
2022/10/23 14:19:27;;;;;;;10.18;4.25;;;15.40;99.90;;;;;;6280856;22;20011;-79
2022/10/23 14:21:53;;;;;;;9.63;3.30;;;15.50;99.90;;;;;;6308763;22;20043;-77
2022/10/23 14:24:19;;;;;;;7.30;3.13;;;15.50;99.90;;;;;;6308749;22;20077;-81
2022/10/23 14:26:44;;;;;;;12.93;3.45;;;15.50;99.90;;;;;;6281117;22;20008;-78
2022/10/23 14:29:10;;;;;;;11.07;3.35;;;15.60;99.90;;;;;;6281395;22;20110;-78
2022/10/23 14:31:35;;;;;;;6.43;3.65;;;15.60;99.90;;;;;;6281234;22;20019;-80
2022/10/23 14:34:01;;;;;;;7.82;2.90;;;15.60;99.90;;;;;;6281421;22;20015;-82
2022/10/23 14:36:28;;;;;;;7.72;2.97;;;15.70;99.90;;;;;;6281256;22;20007;-80
2022/10/23 14:38:57;;;;;;;8.10;2.90;;;15.60;99.90;;;;;;6281132;22;20018;-81
2022/10/23 14:41:25;;;;;;;9.30;3.15;;;15.70;99.90;;;;;;6308889;22;20082;-82
2022/10/23 14:43:50;;;;;;;7.57;2.95;;;15.70;99.90;;;;;;6281162;22;20445;-81
2022/10/23 14:46:20;;;;;;;7.20;3.00;;;15.70;99.90;;;;;;6281297;22;20026;-81
2022/10/23 14:48:46;;;;;;;7.00;3.38;;;15.70;99.90;;;;;;6281000;22;20373;-79
2022/10/23 14:51:26;;;;;;;8.43;3.38;;;15.80;99.90;;;;;;6280262;22;20068;-81
2022/10/23 14:54:03;;;;;;;8.77;2.85;;;15.80;99.90;;;;;;6280779;22;20015;-81
2022/10/23 14:56:31;;;;;;;7.80;3.17;;;15.80;99.90;;;;;;6280585;22;20012;-79
2022/10/23 14:59:01;;;;;;;7.45;3.10;;;15.80;99.90;;;;;;6280855;22;20015;-77
2022/10/23 15:01:32;;;;;;;7.90;3.53;;;15.80;99.90;;;;;;6307901;22;20043;-79
2022/10/23 15:03:57;;;;;;;8.50;3.50;;;15.80;99.90;;;;;;6308497;22;20079;-79
2022/10/23 15:06:23;;;;;;;6.15;2.92;;;15.80;99.90;;;;;;6255376;22;20077;-76
2022/10/23 15:08:50;;;;;;;10.43;2.95;;;15.80;99.90;;;;;;6308283;22;20058;-81
2022/10/23 15:11:16;;;;;;;6.88;2.97;;;15.80;99.90;;;;;;6255257;22;20457;-80
2022/10/23 15:13:42;;;;;;;9.73;2.88;;;15.80;99.90;;;;;;6308439;22;20012;-80
2022/10/23 15:16:09;;;;;;;9.18;3.08;;;15.80;99.90;;;;;;6280996;22;20015;-81
2022/10/23 15:18:36;;;;;;;8.68;3.08;;;15.90;99.90;;;;;;6280774;22;20007;-77
2022/10/23 15:21:04;;;;;;;7.85;2.75;;;15.90;99.90;;;;;;6280693;22;20011;-79
2022/10/23 15:23:33;;;;;;;6.05;2.78;;;15.90;99.90;;;;;;6280619;22;20082;-82
2022/10/23 15:26:01;;;;;;;6.20;3.10;;;16.00;99.90;;;;;;6280591;22;20019;-79
2022/10/23 15:28:28;;;;;;;5.10;2.63;;;16.00;99.90;;;;;;6280980;22;20043;-84
2022/10/23 15:30:54;;;;;;;6.30;3.05;;;15.90;99.90;;;;;;6281265;22;20037;-79
2022/10/23 15:33:21;;;;;;;9.25;3.10;;;15.90;99.90;;;;;;6307047;22;20011;-79
2022/10/23 15:35:46;;;;;;;7.38;2.60;;;15.90;99.90;;;;;;6278497;22;20043;-80
2022/10/23 15:38:12;;;;;;;7.88;2.95;;;15.90;99.90;;;;;;6306921;22;20007;-82
2022/10/23 15:40:38;;;;;;;6.90;3.03;;;15.90;99.90;;;;;;6281106;22;20395;-77
2022/10/23 15:43:04;;;;;;;7.00;3.10;;;15.80;99.90;;;;;;6280217;22;20491;-80
2022/10/23 15:45:30;;;;;;;6.53;2.60;;;15.80;99.90;;;;;;6281191;22;20363;-79
2022/10/23 15:47:55;;;;;;;8.77;2.92;;;15.80;99.90;;;;;;6255642;22;20362;-85
2022/10/23 15:50:21;;;;;;;7.05;2.80;;;15.80;99.90;;;;;;6281182;22;20046;-81
2022/10/23 15:52:47;;;;;;;7.50;3.03;;;15.70;99.90;;;;;;6255217;22;20018;-79
2022/10/23 15:55:13;;;;;;;8.90;2.95;;;15.70;99.90;;;;;;6255503;22;20018;-80
2022/10/23 15:57:39;;;;;;;7.45;2.60;;;15.60;99.90;;;;;;6280801;22;20014;-80
2022/10/23 16:00:08;;;;;;;9.20;2.90;;;15.70;99.90;;;;;;6230420;22;20067;-79
2022/10/23 16:02:34;;;;;;;7.95;3.20;;;15.60;99.90;;;;;;6280774;22;20012;-79
2022/10/23 16:04:59;;;;;;;7.55;3.28;;;15.60;99.90;;;;;;6282202;22;20011;-78
2022/10/23 16:07:25;;;;;;;8.60;3.00;;;15.50;99.90;;;;;;6257358;22;20011;-77
2022/10/23 16:09:51;;;;;;;10.55;3.03;;;15.50;99.90;;;;;;6283081;22;20145;-79
2022/10/23 16:12:17;;;;;;;10.88;3.33;;;15.50;99.90;;;;;;6310415;22;20413;-82
2022/10/23 16:14:43;;;;;;;8.82;3.45;;;15.50;99.90;;;;;;6282910;22;20022;-80
2022/10/23 16:17:09;;;;;;;6.88;3.15;;;15.50;99.90;;;;;;6282947;22;20011;-81
2022/10/23 16:19:35;;;;;;;6.28;2.80;;;15.50;99.90;;;;;;6282636;22;20003;-79
2022/10/23 16:22:02;;;;;;;10.30;3.30;;;15.40;99.90;;;;;;6282878;22;20340;-81
2022/10/23 16:24:28;;;;;;;11.52;2.95;;;15.40;99.90;;;;;;6282925;22;20027;-80
2022/10/23 16:26:56;;;;;;;6.90;2.90;;;15.40;99.90;;;;;;6282855;22;20011;-82
2022/10/23 16:29:26;;;;;;;11.30;3.10;;;15.40;99.90;;;;;;6256843;22;20440;-79
2022/10/23 16:31:52;;;;;;;7.93;3.10;;;15.40;99.90;;;;;;6282432;22;20018;-80
2022/10/23 16:34:19;;;;;;;9.63;3.90;;;15.30;99.90;;;;;;6283163;22;20552;-83
2022/10/23 16:36:45;;;;;;;10.98;3.78;;;15.30;99.90;;;;;;6310060;22;20014;-81
2022/10/23 16:39:13;;;;;;;9.65;3.25;;;15.20;99.90;;;;;;6282633;22;20015;-80
2022/10/23 16:41:39;;;;;;;9.10;3.13;;;15.20;99.90;;;;;;6282310;22;20061;-78
2022/10/23 16:44:05;;;;;;;8.27;3.28;;;15.20;99.90;;;;;;6282647;22;20019;-79
2022/10/23 16:46:30;;;;;;;7.18;3.00;;;15.20;99.90;;;;;;6282521;22;20015;-83
2022/10/23 16:48:56;;;;;;;8.73;3.22;;;15.20;99.90;;;;;;6310052;22;20017;-82
2022/10/23 16:51:25;;;;;;;7.10;2.92;;;15.20;99.90;;;;;;6282280;22;20368;-79
2022/10/23 16:53:51;;;;;;;8.80;3.22;;;15.20;99.90;;;;;;6281978;22;20022;-78